Time;durP1;ratioP1;P1;durP2;ratioP2;P2;SDS_P1;SDS_P2;PMS_P1;PMS_P2;Temp;Humidity;BMP_temperature;BMP_pressure;BME280_temperature;BME280_humidity;BME280_pressure;Samples;Min_cycle;Max_cycle;Signal;HPM_P1;HPM_P2
2022/10/20 00:01:13;;;;;;;9.05;3.95;;;;;;;4.92;100.00;101374.28;6336912;28;20034;-90
2022/10/20 00:04:14;;;;;;;7.82;3.60;;;;;;;4.94;100.00;101372.50;6337618;28;20092;-91
2022/10/20 00:07:16;;;;;;;6.13;4.60;;;;;;;4.93;100.00;101370.81;6331540;28;20051;-91
2022/10/20 00:10:18;;;;;;;6.50;4.18;;;;;;;4.89;100.00;101366.69;6336844;28;20165;-91
2022/10/20 00:13:21;;;;;;;5.45;3.33;;;;;;;4.86;100.00;101364.25;6336621;28;20055;-91
2022/10/20 00:16:24;;;;;;;5.05;3.75;;;;;;;4.81;100.00;101361.03;6336093;28;20045;-91
2022/10/20 00:19:27;;;;;;;8.48;5.00;;;;;;;4.82;100.00;101349.91;6338313;28;20047;-90
2022/10/20 00:22:30;;;;;;;9.05;4.00;;;;;;;4.79;100.00;101337.19;6336786;28;20039;-91
2022/10/20 00:25:32;;;;;;;7.18;3.95;;;;;;;4.83;100.00;101333.59;6334092;28;20074;-91
2022/10/20 00:28:34;;;;;;;5.25;3.70;;;;;;;4.79;100.00;101339.75;6336214;28;20032;-91
2022/10/20 00:31:36;;;;;;;6.72;4.20;;;;;;;4.77;100.00;101320.19;6336217;28;20622;-91
2022/10/20 00:34:38;;;;;;;4.97;3.70;;;;;;;4.75;100.00;101326.25;6338173;28;20266;-91
2022/10/20 00:37:39;;;;;;;7.28;4.25;;;;;;;4.78;100.00;101319.31;6334217;27;20508;-91
2022/10/20 00:40:41;;;;;;;8.73;4.10;;;;;;;4.79;100.00;101324.38;6332095;28;20490;-91
2022/10/20 00:43:45;;;;;;;8.25;4.18;;;;;;;4.78;100.00;101315.00;6333382;28;20368;-91
2022/10/20 00:46:47;;;;;;;8.02;4.10;;;;;;;4.75;100.00;101315.16;6336747;28;20050;-90
2022/10/20 00:49:50;;;;;;;7.45;4.13;;;;;;;4.73;100.00;101310.06;6334771;28;20040;-90
2022/10/20 00:52:54;;;;;;;5.15;4.25;;;;;;;4.73;100.00;101307.50;6333717;28;20126;-91
2022/10/20 00:55:58;;;;;;;6.75;4.20;;;;;;;4.75;100.00;101317.72;6334378;28;20043;-92
2022/10/20 00:59:02;;;;;;;7.00;3.85;;;;;;;4.76;100.00;101309.13;6335734;28;20478;-91
2022/10/20 01:02:07;;;;;;;7.80;4.25;;;;;;;4.74;100.00;101301.50;6336678;28;20039;-91
2022/10/20 01:05:10;;;;;;;6.63;3.92;;;;;;;4.78;100.00;101296.25;6315116;28;20045;-91
2022/10/20 01:08:12;;;;;;;8.15;4.28;;;;;;;4.78;100.00;101291.09;6324198;28;20048;-91
2022/10/20 01:11:41;;;;;;;6.85;4.25;;;;;;;4.74;100.00;101280.13;6324444;28;20218;-91
2022/10/20 01:15:02;;;;;;;10.20;4.28;;;;;;;4.74;100.00;101278.41;6332673;28;20043;-91
2022/10/20 01:18:10;;;;;;;;;;;;;;;4.69;100.00;101274.38;6334645;28;20071;-91
2022/10/20 01:21:51;;;;;;;7.38;4.03;;;;;;;4.69;100.00;101276.94;6336008;28;20259;-92
2022/10/20 01:25:11;;;;;;;8.68;4.75;;;;;;;4.68;100.00;101275.28;6330881;28;20407;-91
2022/10/20 01:28:33;;;;;;;8.02;4.68;;;;;;;4.67;100.00;101277.00;6329371;28;20078;-91
2022/10/20 01:31:54;;;;;;;6.85;4.05;;;;;;;4.63;100.00;101269.50;6312416;28;20603;-91
2022/10/20 01:34:55;;;;;;;9.75;4.43;;;;;;;4.62;100.00;101265.25;6325878;28;20156;-92
2022/10/20 01:38:22;;;;;;;6.75;4.47;;;;;;;4.62;100.00;101258.44;6325464;28;20070;-91
2022/10/20 01:41:37;;;;;;;9.35;5.00;;;;;;;4.61;100.00;101255.91;6310700;28;20374;-91
2022/10/20 01:44:41;;;;;;;6.05;4.25;;;;;;;4.54;100.00;101255.34;6332507;28;20453;-91
2022/10/20 01:47:44;;;;;;;6.22;4.25;;;;;;;4.52;100.00;101257.97;6334995;28;20051;-91
2022/10/20 01:50:48;;;;;;;8.15;4.10;;;;;;;4.44;100.00;101247.19;6334371;28;20084;-92
2022/10/20 01:53:50;;;;;;;7.35;4.18;;;;;;;4.36;100.00;101239.00;6331962;28;20142;-91
2022/10/20 01:57:23;;;;;;;7.78;4.50;;;;;;;4.33;100.00;101239.13;6333163;28;20040;-91
2022/10/20 02:00:25;;;;;;;5.25;3.75;;;;;;;4.27;100.00;101232.53;6322610;28;20118;-91
2022/10/20 02:04:08;;;;;;;9.43;4.53;;;;;;;4.26;100.00;101232.59;6336080;28;20535;-91
2022/10/20 02:07:41;;;;;;;6.28;4.25;;;;;;;4.31;100.00;101233.22;6300419;28;20032;-91
2022/10/20 02:10:46;;;;;;;8.45;4.07;;;;;;;4.29;100.00;101225.59;6210485;28;20053;-92
2022/10/20 02:13:50;;;;;;;6.80;4.10;;;;;;;4.24;100.00;101224.94;6229152;28;20064;-91
2022/10/20 02:16:58;;;;;;;8.13;4.22;;;;;;;4.25;100.00;101218.94;6227533;28;20049;-91
2022/10/20 02:20:01;;;;;;;8.27;4.60;;;;;;;4.28;100.00;101215.41;6227300;28;20054;-91
2022/10/20 02:23:05;;;;;;;8.75;4.18;;;;;;;4.30;100.00;101211.91;6228089;28;20496;-91
2022/10/20 02:26:11;;;;;;;8.88;4.75;;;;;;;4.31;100.00;101212.72;6220776;28;20046;-91
2022/10/20 02:29:21;;;;;;;8.95;4.32;;;;;;;4.32;100.00;101211.81;6225527;28;20050;-91
2022/10/20 02:32:23;;;;;;;6.65;4.35;;;;;;;4.30;100.00;101195.69;6220947;28;20504;-91
2022/10/20 02:35:31;;;;;;;8.65;4.63;;;;;;;4.28;100.00;101185.50;6223063;28;20037;-91
2022/10/20 02:38:33;;;;;;;8.80;4.82;;;;;;;4.26;100.00;101189.03;6210175;28;20098;-92
2022/10/20 02:41:36;;;;;;;8.27;3.85;;;;;;;4.26;100.00;101189.84;6254957;28;20846;-91
2022/10/20 02:44:37;;;;;;;6.28;4.00;;;;;;;4.20;100.00;101177.31;6271243;28;20458;-91
2022/10/20 02:47:39;;;;;;;6.13;4.40;;;;;;;4.20;100.00;101167.06;6306611;28;20047;-91
2022/10/20 02:50:41;;;;;;;8.50;3.90;;;;;;;4.19;100.00;101170.50;6332297;28;20043;-90
2022/10/20 02:53:43;;;;;;;8.98;4.35;;;;;;;4.20;100.00;101163.63;6334445;28;20051;-92
2022/10/20 02:56:45;;;;;;;6.43;4.13;;;;;;;4.23;100.00;101163.53;6334569;28;20066;-91
2022/10/20 02:59:47;;;;;;;8.95;3.75;;;;;;;4.30;100.00;101155.53;6334683;28;20043;-92
2022/10/20 03:02:50;;;;;;;8.73;4.10;;;;;;;4.34;100.00;101161.34;6334417;28;20075;-92
2022/10/20 03:05:51;;;;;;;6.32;4.03;;;;;;;4.36;100.00;101156.16;6327781;28;20050;-92
2022/10/20 03:08:53;;;;;;;5.40;3.95;;;;;;;4.37;100.00;101150.94;6333543;28;20509;-92
2022/10/20 03:11:55;;;;;;;7.28;4.22;;;;;;;4.43;100.00;101157.56;6334455;28;20051;-92
2022/10/20 03:14:57;;;;;;;6.15;4.05;;;;;;;4.47;100.00;101156.50;6334946;28;20050;-91
2022/10/20 03:17:58;;;;;;;5.43;3.63;;;;;;;4.44;100.00;101146.41;6333347;28;20044;-92
2022/10/20 03:21:00;;;;;;;4.80;4.10;;;;;;;4.44;100.00;101139.53;6334864;28;20501;-92
2022/10/20 03:24:02;;;;;;;7.07;4.55;;;;;;;4.46;100.00;101135.19;6333423;28;20265;-91
2022/10/20 03:27:04;;;;;;;7.18;4.28;;;;;;;4.50;100.00;101136.72;6330105;28;20036;-92
2022/10/20 03:30:08;;;;;;;5.95;3.85;;;;;;;4.49;100.00;101142.72;6331220;28;20046;-92
2022/10/20 03:33:09;;;;;;;5.18;3.50;;;;;;;4.48;100.00;101133.38;6333367;28;20048;-92
2022/10/20 03:36:11;;;;;;;5.53;3.67;;;;;;;4.47;100.00;101136.00;6331795;28;20627;-92
2022/10/20 03:39:13;;;;;;;8.18;4.00;;;;;;;4.47;100.00;101133.44;6337173;28;20101;-92
2022/10/20 03:42:15;;;;;;;4.05;3.50;;;;;;;4.47;100.00;101125.75;6337330;28;20490;-91
2022/10/20 03:45:16;;;;;;;4.88;3.80;;;;;;;4.48;100.00;101130.00;6334653;28;20050;-92
2022/10/20 03:48:19;;;;;;;7.32;4.40;;;;;;;4.42;100.00;101123.41;6330781;28;20036;-92
2022/10/20 03:51:21;;;;;;;6.55;4.40;;;;;;;4.39;100.00;101123.53;6337438;28;20084;-92
2022/10/20 03:54:23;;;;;;;7.57;3.95;;;;;;;4.37;100.00;101121.91;6336963;28;20401;-92
2022/10/20 03:57:25;;;;;;;5.82;4.20;;;;;;;4.32;100.00;101112.72;6331272;28;20317;-91
2022/10/20 04:00:26;;;;;;;6.85;4.07;;;;;;;4.32;100.00;101115.28;6331585;28;20044;-91
2022/10/20 04:03:28;;;;;;;7.35;4.32;;;;;;;4.32;100.00;101114.44;6337655;28;20055;-92
2022/10/20 04:06:31;;;;;;;8.73;4.72;;;;;;;4.24;100.00;101106.25;6338389;28;20048;-92
2022/10/20 04:09:35;;;;;;;8.23;3.92;;;;;;;4.22;100.00;101095.22;6338796;28;20039;-93
2022/10/20 04:12:37;;;;;;;6.05;4.50;;;;;;;4.17;100.00;101092.88;6337330;28;20497;-92
2022/10/20 04:15:39;;;;;;;6.75;3.88;;;;;;;4.10;100.00;101083.81;6335404;28;20041;-91
2022/10/20 04:18:41;;;;;;;5.57;4.13;;;;;;;4.02;100.00;101076.41;6336493;28;20482;-91
2022/10/20 04:21:43;;;;;;;9.27;4.55;;;;;;;3.98;100.00;101074.91;6329607;28;20043;-91
2022/10/20 04:24:45;;;;;;;6.60;4.18;;;;;;;3.96;100.00;101071.56;6337020;28;20497;-92
2022/10/20 04:27:46;;;;;;;4.63;3.67;;;;;;;3.96;100.00;101063.88;6337418;28;20040;-91
2022/10/20 04:30:48;;;;;;;7.35;3.70;;;;;;;3.92;100.00;101066.66;6316685;28;20040;-92
2022/10/20 04:33:50;;;;;;;5.97;3.78;;;;;;;3.93;100.00;101053.78;6323766;28;20036;-91
2022/10/20 04:36:52;;;;;;;6.00;4.32;;;;;;;3.91;100.00;101053.00;6336749;28;20044;-91
2022/10/20 04:39:56;;;;;;;9.27;5.18;;;;;;;3.86;100.00;101053.19;6336888;28;20035;-92
2022/10/20 04:42:59;;;;;;;8.00;4.05;;;;;;;3.84;100.00;101054.16;6334134;28;20160;-92
2022/10/20 04:46:03;;;;;;;4.82;3.70;;;;;;;3.82;100.00;101058.50;6336465;28;20377;-92
2022/10/20 04:49:09;;;;;;;6.90;3.67;;;;;;;3.83;100.00;101052.50;6322868;28;20039;-92
2022/10/20 04:52:11;;;;;;;7.57;3.50;;;;;;;3.78;100.00;101051.88;6351367;27;20386;-92
2022/10/20 04:55:13;;;;;;;5.95;3.60;;;;;;;3.73;100.00;101043.56;6336780;28;20043;-91
2022/10/20 04:58:14;;;;;;;5.30;3.83;;;;;;;3.72;100.00;101036.75;6333417;28;20044;-92
2022/10/20 05:01:17;;;;;;;4.60;3.13;;;;;;;3.70;100.00;101036.00;6336558;28;20081;-92
2022/10/20 05:04:25;;;;;;;5.47;3.38;;;;;;;3.66;100.00;101033.56;6334235;28;20047;-92
2022/10/20 05:07:29;;;;;;;5.40;4.00;;;;;;;3.65;100.00;101024.22;6335299;28;20067;-91
2022/10/20 05:10:31;;;;;;;5.10;3.17;;;;;;;3.70;100.00;101015.50;6336341;28;20035;-92
2022/10/20 05:13:38;;;;;;;6.22;3.60;;;;;;;3.73;100.00;101018.78;6334426;28;20040;-93
2022/10/20 05:16:39;;;;;;;4.05;3.40;;;;;;;3.74;100.00;101009.38;6335204;28;20062;-91
2022/10/20 05:19:41;;;;;;;5.57;3.88;;;;;;;3.78;100.00;101018.59;6336065;28;20044;-92
2022/10/20 05:22:43;;;;;;;4.40;2.97;;;;;;;3.78;100.00;101010.91;6334782;28;20122;-92
2022/10/20 05:25:45;;;;;;;4.35;3.25;;;;;;;3.78;100.00;101021.97;6335120;28;20039;-92
2022/10/20 05:28:49;;;;;;;4.45;3.35;;;;;;;3.81;100.00;101005.66;6334015;27;20059;-91
2022/10/20 05:31:50;;;;;;;4.05;3.10;;;;;;;3.78;100.00;100998.13;6335348;28;20039;-91
2022/10/20 05:34:52;;;;;;;6.22;3.60;;;;;;;3.76;100.00;100994.78;6333057;28;20066;-92
2022/10/20 05:37:55;;;;;;;5.78;3.38;;;;;;;3.72;100.00;100985.56;6327362;28;20225;-92
2022/10/20 05:41:05;;;;;;;6.95;4.25;;;;;;;3.75;100.00;100982.84;6328308;28;20093;-92
2022/10/20 05:44:10;;;;;;;9.25;3.47;;;;;;;3.79;100.00;100980.09;6336811;28;20052;-92
2022/10/20 05:47:12;;;;;;;6.30;4.30;;;;;;;3.93;100.00;100983.81;6326029;28;20040;-92
2022/10/20 05:50:14;;;;;;;5.18;4.07;;;;;;;3.95;100.00;100990.53;6334296;28;20430;-92
2022/10/20 05:53:16;;;;;;;5.63;3.78;;;;;;;3.98;100.00;100987.81;6334965;28;20441;-92
2022/10/20 05:56:19;;;;;;;4.97;3.92;;;;;;;4.01;100.00;100984.28;6334414;28;20035;-92
2022/10/20 05:59:21;;;;;;;5.10;3.40;;;;;;;4.02;100.00;100988.50;6335424;28;20132;-92
2022/10/20 06:02:23;;;;;;;5.40;3.67;;;;;;;4.05;100.00;100981.53;6334388;28;20043;-92
2022/10/20 06:05:25;;;;;;;5.15;3.70;;;;;;;4.04;100.00;100987.53;6335181;28;20039;-92
2022/10/20 06:08:31;;;;;;;4.47;3.60;;;;;;;4.09;100.00;100982.22;6334147;28;20430;-92
2022/10/20 06:11:37;;;;;;;6.40;3.83;;;;;;;4.13;100.00;100967.56;6327879;28;20417;-93
2022/10/20 06:14:40;;;;;;;5.60;4.35;;;;;;;4.15;100.00;100974.28;6329932;28;20044;-92
2022/10/20 06:17:42;;;;;;;5.05;3.70;;;;;;;4.23;100.00;100982.44;6323796;28;20054;-92
2022/10/20 06:20:44;;;;;;;6.38;3.60;;;;;;;4.23;100.00;100972.19;6332231;28;20039;-92
2022/10/20 06:23:46;;;;;;;5.32;3.38;;;;;;;4.28;100.00;100967.69;6334199;28;20043;-92
2022/10/20 06:26:48;;;;;;;7.60;3.60;;;;;;;4.35;100.00;100958.00;6335179;28;20349;-91
2022/10/20 06:29:50;;;;;;;6.60;3.47;;;;;;;4.44;100.00;100954.16;6332808;28;20047;-92
2022/10/20 06:32:58;;;;;;;5.57;3.22;;;;;;;4.54;100.00;100979.28;6321144;28;20387;-92
2022/10/20 06:36:00;;;;;;;4.30;3.17;;;;;;;4.60;100.00;100975.63;6329965;28;20043;-92
2022/10/20 06:39:04;;;;;;;4.70;3.20;;;;;;;4.65;100.00;100978.81;6334437;28;20051;-92
2022/10/20 06:42:10;;;;;;;9.43;3.35;;;;;;;4.71;100.00;100982.81;6324742;28;20107;-91
2022/10/20 06:45:18;;;;;;;4.10;2.88;;;;;;;4.75;100.00;100966.38;6326444;28;20039;-91
2022/10/20 06:48:20;;;;;;;4.15;3.10;;;;;;;4.79;100.00;100956.78;6331164;28;20108;-92
2022/10/20 06:51:22;;;;;;;4.15;3.10;;;;;;;4.81;100.00;100955.00;6332218;28;20083;-91
2022/10/20 06:54:24;;;;;;;4.70;3.20;;;;;;;4.86;100.00;100942.78;6334726;28;20044;-92
2022/10/20 06:57:26;;;;;;;4.95;3.42;;;;;;;4.94;100.00;100945.78;6314850;28;20112;-92
2022/10/20 07:00:28;;;;;;;5.75;3.50;;;;;;;4.97;100.00;100938.78;6334497;28;20556;-93
2022/10/20 07:03:33;;;;;;;5.45;3.63;;;;;;;5.00;100.00;100931.84;6325563;28;20039;-92
2022/10/20 07:06:44;;;;;;;6.97;3.72;;;;;;;4.98;100.00;100942.19;6310853;28;20631;-92
2022/10/20 07:09:46;;;;;;;7.10;3.50;;;;;;;4.99;100.00;100941.25;6341258;28;20177;-93
2022/10/20 07:12:48;;;;;;;5.65;3.58;;;;;;;5.05;100.00;100927.31;6339347;28;20040;-92
2022/10/20 07:15:58;;;;;;;5.25;3.38;;;;;;;5.12;100.00;100918.41;6321759;28;20043;-92
2022/10/20 07:19:01;;;;;;;7.85;4.45;;;;;;;5.17;100.00;100914.72;6334188;28;20036;-92
2022/10/20 07:22:02;;;;;;;4.78;3.30;;;;;;;5.21;100.00;100917.13;6335559;28;20051;-89
2022/10/20 07:25:05;;;;;;;7.28;3.80;;;;;;;5.28;100.00;100909.03;6339491;28;20043;-89
2022/10/20 07:28:08;;;;;;;8.52;4.18;;;;;;;5.35;100.00;100909.56;6335386;28;20503;-89
2022/10/20 07:31:23;;;;;;;5.93;4.18;;;;;;;5.40;100.00;100912.72;6340877;28;20400;-89
2022/10/20 07:34:25;;;;;;;6.90;3.85;;;;;;;5.47;100.00;100919.19;6334818;28;20035;-89
2022/10/20 07:37:29;;;;;;;5.57;3.95;;;;;;;5.57;100.00;100907.53;6336141;28;20040;-89
2022/10/20 07:40:30;;;;;;;6.18;3.85;;;;;;;5.63;100.00;100908.94;6341008;28;20036;-89
2022/10/20 07:43:32;;;;;;;9.00;4.68;;;;;;;5.67;100.00;100900.19;6336026;28;20425;-89
2022/10/20 07:46:35;;;;;;;7.75;4.45;;;;;;;5.74;100.00;100913.50;6340934;28;20476;-89
2022/10/20 07:49:37;;;;;;;8.10;4.60;;;;;;;5.81;100.00;100905.44;6316221;28;20054;-89
2022/10/20 07:52:49;;;;;;;7.82;4.63;;;;;;;5.91;100.00;100898.03;6335853;28;20057;-89
2022/10/20 07:55:52;;;;;;;6.88;5.00;;;;;;;6.01;100.00;100896.69;6340346;28;20402;-89
2022/10/20 07:58:54;;;;;;;7.35;5.80;;;;;;;6.10;100.00;100885.06;6337306;28;20118;-89
2022/10/20 08:01:56;;;;;;;6.55;4.35;;;;;;;6.20;100.00;100893.94;6341328;28;20047;-89
2022/10/20 08:05:02;;;;;;;9.20;4.50;;;;;;;6.26;100.00;100900.50;6339836;28;20063;-89
2022/10/20 08:08:04;;;;;;;6.55;4.88;;;;;;;6.31;100.00;100895.94;6337346;28;20062;-90
2022/10/20 08:11:06;;;;;;;5.90;4.32;;;;;;;6.36;100.00;100903.38;6340651;28;20103;-89
2022/10/20 08:14:08;;;;;;;7.63;4.50;;;;;;;6.41;100.00;100899.66;6340639;28;20126;-89
2022/10/20 08:17:10;;;;;;;7.72;4.90;;;;;;;6.48;100.00;100902.69;6339784;28;20035;-90
2022/10/20 08:20:12;;;;;;;6.28;4.95;;;;;;;6.52;100.00;100890.50;6339695;28;20045;-89
2022/10/20 08:23:15;;;;;;;9.00;5.68;;;;;;;6.59;100.00;100891.81;6339665;28;20398;-90
2022/10/20 08:26:20;;;;;;;8.13;5.30;;;;;;;6.62;100.00;100889.06;6340374;28;20043;-90
2022/10/20 08:29:22;;;;;;;9.32;5.43;;;;;;;6.59;100.00;100891.81;6339886;28;20105;-90
2022/10/20 08:32:24;;;;;;;9.00;5.63;;;;;;;6.60;100.00;100884.00;6338902;28;20477;-90
2022/10/20 08:35:26;;;;;;;9.68;5.20;;;;;;;6.68;100.00;100879.28;6339035;28;20036;-90
2022/10/20 08:38:28;;;;;;;9.68;5.53;;;;;;;6.70;100.00;100868.88;6337071;28;20040;-90
2022/10/20 08:41:34;;;;;;;7.72;5.80;;;;;;;6.72;100.00;100868.78;6337358;28;20132;-90
2022/10/20 08:44:59;;;;;;;7.75;5.88;;;;;;;6.74;100.00;100865.22;6337863;28;20145;-89
2022/10/20 08:48:01;;;;;;;9.13;6.00;;;;;;;6.80;100.00;100858.88;6338472;28;20110;-90
2022/10/20 08:51:03;;;;;;;9.40;6.05;;;;;;;-145.48;100.00;64539.38;6331365;28;20040;-89
2022/10/20 08:54:12;;;;;;;8.40;5.93;;;;;;;-145.48;100.00;64539.38;6338746;28;20036;-90
2022/10/20 08:57:25;;;;;;;9.50;6.07;;;;;;;-145.48;100.00;64539.38;6336852;28;20172;-89
2022/10/20 09:00:29;;;;;;;22.58;6.82;;;;;;;-145.48;100.00;64539.38;6337976;28;20048;-90
2022/10/20 09:03:32;;;;;;;9.77;6.85;;;;;;;-145.48;100.00;64539.38;6329175;28;20154;-90
2022/10/20 09:06:34;;;;;;;9.38;5.45;;;;;;;-145.48;100.00;64539.38;6331162;28;20047;-90
2022/10/20 09:09:37;;;;;;;10.35;6.50;;;;;;;-145.48;100.00;64539.38;6336909;28;20308;-90
2022/10/20 09:12:41;;;;;;;10.38;6.07;;;;;;;-145.48;100.00;64539.38;6336090;28;20040;-90
2022/10/20 09:15:43;;;;;;;9.15;6.28;;;;;;;-145.48;100.00;64539.38;6337215;28;20047;-90
2022/10/20 09:18:51;;;;;;;12.00;6.25;;;;;;;-145.48;100.00;64539.38;6334189;28;20043;-90
2022/10/20 09:22:03;;;;;;;9.10;5.97;;;;;;;-145.48;100.00;64539.38;6333357;28;20035;-89
2022/10/20 09:25:11;;;;;;;8.10;5.78;;;;;;;-145.48;100.00;64539.38;6337614;27;20048;-89
2022/10/20 09:28:22;;;;;;;8.40;5.85;;;;;;;-145.48;100.00;64539.38;6336181;28;20123;-90
2022/10/20 09:31:33;;;;;;;9.40;6.32;;;;;;;-145.48;100.00;64539.38;6328575;28;20059;-89
2022/10/20 09:34:36;;;;;;;8.23;5.97;;;;;;;-145.48;100.00;64539.38;6332087;28;20053;-89
2022/10/20 09:37:38;;;;;;;8.25;5.95;;;;;;;-145.48;100.00;64539.38;6334548;28;20043;-89
2022/10/20 09:41:05;;;;;;;10.05;6.43;;;;;;;-145.48;100.00;64539.38;6339069;28;20369;-90
2022/10/20 09:44:22;;;;;;;8.52;5.85;;;;;;;-145.48;100.00;64539.38;6265660;28;20040;-89
2022/10/20 09:47:27;;;;;;;9.90;6.70;;;;;;;-145.48;100.00;64539.38;6279853;28;20130;-90
2022/10/20 09:50:34;;;;;;;12.48;6.35;;;;;;;-145.48;100.00;64539.38;6292230;28;20432;-89
2022/10/20 09:53:51;;;;;;;10.10;6.53;;;;;;;-145.48;100.00;64539.38;6264487;28;20059;-89
2022/10/20 09:57:02;;;;;;;9.57;6.15;;;;;;;-145.48;100.00;64539.38;6271549;28;20048;-90
2022/10/20 10:00:04;;;;;;;8.70;6.03;;;;;;;-145.48;100.00;64539.38;6250873;28;20114;-89
2022/10/20 10:03:26;;;;;;;9.02;6.00;;;;;;;-145.48;100.00;64539.38;6279342;28;20040;-89
2022/10/20 10:06:30;;;;;;;12.35;6.20;;;;;;;-145.48;100.00;64539.38;6281919;28;20079;-89
2022/10/20 10:09:36;;;;;;;10.20;5.55;;;;;;;-145.48;100.00;64539.38;6282410;28;20254;-89
2022/10/20 10:12:38;;;;;;;9.30;5.90;;;;;;;-145.48;100.00;64539.38;6279999;28;20180;-89
2022/10/20 10:15:40;;;;;;;8.70;5.55;;;;;;;-145.48;100.00;64539.38;6273869;28;20448;-89
2022/10/20 10:18:53;;;;;;;8.93;5.80;;;;;;;-145.48;100.00;64539.38;6282805;28;20064;-89
2022/10/20 10:21:59;;;;;;;8.65;5.72;;;;;;;-145.48;100.00;64539.38;6327432;28;20056;-89
2022/10/20 10:25:01;;;;;;;8.07;5.47;;;;;;;-145.48;100.00;64539.38;6333269;28;20043;-89
2022/10/20 10:28:18;;;;;;;7.28;5.47;;;;;;;-145.48;100.00;64539.38;6328615;28;20401;-89
2022/10/20 10:31:22;;;;;;;8.60;5.50;;;;;;;-145.48;100.00;64539.38;6336795;28;20169;-89
2022/10/20 10:34:44;;;;;;;8.75;5.40;;;;;;;-145.48;100.00;64539.38;6336864;28;20039;-89
2022/10/20 10:37:46;;;;;;;8.70;5.40;;;;;;;-145.48;100.00;64539.38;6336400;28;20417;-89
2022/10/20 10:41:26;;;;;;;6.72;5.40;;;;;;;-145.48;100.00;64539.38;6318702;28;20134;-89
2022/10/20 10:44:49;;;;;;;9.07;5.82;;;;;;;-145.48;100.00;64539.38;6333864;28;20139;-90
2022/10/20 10:48:17;;;;;;;8.48;5.45;;;;;;;-145.48;100.00;64539.38;6336522;28;20046;-90
2022/10/20 10:51:20;;;;;;;7.20;5.63;;;;;;;-145.48;100.00;64539.38;6337045;28;20161;-90
2022/10/20 10:54:47;;;;;;;8.23;5.57;;;;;;;-145.48;100.00;64539.38;6334798;28;20113;-90
2022/10/20 10:58:15;;;;;;;7.15;5.35;;;;;;;-145.48;100.00;64539.38;6334716;28;20051;-90
2022/10/20 11:01:29;;;;;;;9.00;5.43;;;;;;;-145.48;100.00;64539.38;6336707;28;20528;-91
2022/10/20 11:04:50;;;;;;;7.30;5.80;;;;;;;-145.48;100.00;64539.38;6336816;28;20040;-90
2022/10/20 11:08:10;;;;;;;8.25;6.13;;;;;;;-145.48;100.00;64539.38;6331928;28;20043;-90
2022/10/20 11:11:40;;;;;;;8.20;5.85;;;;;;;-145.48;100.00;64539.38;6330416;28;20056;-90
2022/10/20 11:15:07;;;;;;;7.90;5.53;;;;;;;-145.48;100.00;64539.38;6336739;28;20424;-90
2022/10/20 11:18:36;;;;;;;8.52;6.25;;;;;;;-145.48;100.00;64539.38;6334838;28;20039;-90
2022/10/20 11:21:56;;;;;;;14.98;6.90;;;;;;;-145.48;100.00;64539.38;6335150;28;20034;-90
2022/10/20 11:25:21;;;;;;;7.22;5.68;;;;;;;-145.48;100.00;64539.38;6334416;28;20315;-90
2022/10/20 11:28:36;;;;;;;8.02;5.72;;;;;;;-145.48;100.00;64539.38;6336528;28;20031;-90
2022/10/20 11:32:02;;;;;;;8.40;6.38;;;;;;;-145.48;100.00;64539.38;6324562;28;20043;-91
2022/10/20 11:35:22;;;;;;;7.57;5.85;;;;;;;-145.48;100.00;64539.38;6328434;28;20073;-91
2022/10/20 11:38:39;;;;;;;12.80;5.60;;;;;;;-145.48;100.00;64539.38;6345467;27;20512;-90
2022/10/20 11:41:49;;;;;;;6.95;5.88;;;;;;;-145.48;100.00;64539.38;6331965;28;20047;-90
2022/10/20 11:44:54;;;;;;;7.90;5.95;;;;;;;-145.48;100.00;64539.38;6335254;28;20039;-90
2022/10/20 11:48:29;;;;;;;9.18;5.55;;;;;;;-145.48;100.00;64539.38;6331593;28;20112;-90
2022/10/20 11:51:30;;;;;;;9.88;5.85;;;;;;;-145.48;100.00;64539.38;6335343;28;20144;-91
2022/10/20 11:54:47;;;;;;;6.80;5.28;;;;;;;-145.48;100.00;64539.38;6334015;28;20043;-91
2022/10/20 11:58:18;;;;;;;12.60;5.72;;;;;;;-145.48;100.00;64539.38;6332620;28;20096;-90
2022/10/20 12:01:57;;;;;;;9.00;5.25;;;;;;;-145.48;100.00;64539.38;6339951;28;20843;-90
2022/10/20 12:05:20;;;;;;;9.55;5.78;;;;;;;-145.48;100.00;64539.38;6339692;28;20044;-90
2022/10/20 12:08:44;;;;;;;8.48;6.00;;;;;;;-145.48;100.00;64539.38;6340926;28;20070;-91
2022/10/20 12:12:12;;;;;;;8.98;5.60;;;;;;;-145.48;100.00;64539.38;6321962;28;20501;-90
2022/10/20 12:15:26;;;;;;;7.60;5.30;;;;;;;-145.48;100.00;64539.38;6339989;27;20047;-91
2022/10/20 12:18:31;;;;;;;10.95;5.90;;;;;;;-145.48;100.00;64539.38;6340632;28;20069;-90
2022/10/20 12:21:58;;;;;;;9.98;5.97;;;;;;;-145.48;100.00;64539.38;6334850;28;20036;-91
2022/10/20 12:25:00;;;;;;;9.10;5.85;;;;;;;-145.48;100.00;64539.38;6340331;28;20161;-90
2022/10/20 12:28:21;;;;;;;10.15;6.00;;;;;;;-145.48;100.00;64539.38;6340190;28;20128;-90
2022/10/20 12:31:24;;;;;;;;;;;;;;;-145.48;100.00;64539.38;6338948;28;20044;-91
2022/10/20 12:34:38;;;;;;;10.48;6.55;;;;;;;-145.48;100.00;64539.38;6335170;27;20508;-90
2022/10/20 12:37:41;;;;;;;9.27;5.70;;;;;;;-145.48;100.00;64539.38;6322525;28;20076;-91
2022/10/20 12:40:58;;;;;;;12.35;6.80;;;;;;;-145.48;100.00;64539.38;6340508;28;20162;-90
2022/10/20 12:44:06;;;;;;;8.60;6.20;;;;;;;-145.48;100.00;64539.38;6328617;28;20146;-90
2022/10/20 12:47:09;;;;;;;8.05;6.63;;;;;;;-145.48;100.00;64539.38;6339058;28;20134;-90
2022/10/20 12:50:41;;;;;;;7.88;6.20;;;;;;;-145.48;100.00;64539.38;6339691;27;20487;-90
2022/10/20 12:53:52;;;;;;;7.93;6.22;;;;;;;-145.48;100.00;64539.38;6275810;28;20049;-91
2022/10/20 12:57:19;;;;;;;9.63;6.47;;;;;;;-145.48;100.00;64539.38;6267094;28;20057;-91
2022/10/20 13:00:21;;;;;;;9.85;6.40;;;;;;;-145.48;100.00;64539.38;6291677;28;20407;-90
2022/10/20 13:03:35;;;;;;;8.68;6.10;;;;;;;-145.48;100.00;64539.38;6240799;28;20357;-91
2022/10/20 13:06:37;;;;;;;9.77;6.65;;;;;;;-145.48;100.00;64539.38;6276554;28;20636;-90
2022/10/20 13:09:59;;;;;;;9.55;6.30;;;;;;;-145.48;100.00;64539.38;6279060;28;20071;-91
2022/10/20 13:13:05;;;;;;;7.43;6.15;;;;;;;-145.48;100.00;64539.38;6283454;28;20052;-91
2022/10/20 13:16:18;;;;;;;7.40;6.10;;;;;;;-145.48;100.00;64539.38;6283441;28;20601;-90
2022/10/20 13:19:28;;;;;;;7.43;5.88;;;;;;;-145.48;100.00;64539.38;6265867;28;20052;-90
2022/10/20 13:22:29;;;;;;;10.10;6.10;;;;;;;-145.48;100.00;64539.38;6282921;28;20044;-90
2022/10/20 13:25:36;;;;;;;9.25;6.53;;;;;;;-145.48;100.00;64539.38;6278303;28;20123;-91
2022/10/20 13:28:44;;;;;;;9.52;5.78;;;;;;;-145.48;100.00;64539.38;6264169;28;20040;-91
2022/10/20 13:32:08;;;;;;;10.45;6.00;;;;;;;-145.48;100.00;64539.38;6329392;28;20429;-91
2022/10/20 13:35:29;;;;;;;9.57;5.53;;;;;;;-145.48;100.00;64539.38;6335459;28;20042;-92
2022/10/20 13:38:46;;;;;;;7.45;5.47;;;;;;;-145.48;100.00;64539.38;6335289;28;20501;-91
2022/10/20 13:42:00;;;;;;;7.47;4.88;;;;;;;-145.48;100.00;64539.38;6335726;28;20442;-91
2022/10/20 13:45:05;;;;;;;9.57;5.03;;;;;;;-145.48;100.00;64539.38;6335533;28;20035;-90
2022/10/20 13:48:28;;;;;;;7.70;5.03;;;;;;;-145.48;100.00;64539.38;6337690;28;20064;-91
2022/10/20 13:51:52;;;;;;;6.78;5.20;;;;;;;-145.48;100.00;64539.38;6335609;28;20047;-91
2022/10/20 13:54:55;;;;;;;6.13;4.82;;;;;;;-145.48;100.00;64539.38;6337548;28;20039;-91
2022/10/20 13:58:05;;;;;;;7.13;5.00;;;;;;;-145.48;100.00;64539.38;6335485;28;20047;-92
2022/10/20 14:01:23;;;;;;;8.43;5.22;;;;;;;-145.48;100.00;64539.38;6321614;28;20520;-92
2022/10/20 14:04:37;;;;;;;6.28;5.03;;;;;;;-145.48;100.00;64539.38;6334780;28;20502;-91
2022/10/20 14:07:45;;;;;;;8.15;4.80;;;;;;;-145.48;100.00;64539.38;6313914;28;20490;-92
2022/10/20 14:11:07;;;;;;;9.88;4.32;;;;;;;-145.48;100.00;64539.38;6337256;28;20044;-91
2022/10/20 14:14:14;;;;;;;7.05;4.43;;;;;;;-145.48;100.00;64539.38;6336777;28;20036;-91
2022/10/20 14:17:21;;;;;;;5.63;3.85;;;;;;;-145.48;100.00;64539.38;6335034;28;20047;-92
2022/10/20 14:20:24;;;;;;;5.53;4.65;;;;;;;-145.48;100.00;64539.38;6335883;28;20035;-91
2022/10/20 14:23:34;;;;;;;6.57;4.18;;;;;;;-145.48;100.00;64539.38;6331103;28;20035;-92
2022/10/20 14:26:36;;;;;;;4.93;4.05;;;;;;;-145.48;100.00;64539.38;6319742;28;20027;-91